Eviapetrol I — SY5401 — position and weather

sailwx.info

Track history (hours):
 
Tides and Currents Weather Stations Pressure Air Temp Water Temp Dewpoint Dewpoint Depression Visibility Wind Speed Wind Dir Waves Ship Positions

Eviapetrol I

Last reported at 2015-Jan-27 09:31 UTC. Time now 2015-Jan-29 12:22 UTC.
Position N 37°37' E 023°56'.

Length 75 m; draft 4.5 m.

Type: Tanker. MMSI: 240285000.

Date/timePositionNaut miles runAvg speedWind from/ knotsBaromVisibWave heightAir tempDewpointWater temp
2015-Jan-27 09:31N 37°37' E 023°56'9 9.2
2015-Jan-27 08:33N 37°39' E 023°45'9 9.3
2015-Jan-27 07:34N 37°47' E 023°38'9 8.9
2015-Jan-27 06:33N 37°50' E 023°28'12 0.4
2015-Jan-25 22:13N 37°47' E 023°14'8 9.5
2015-Jan-25 21:20N 37°40' E 023°19'17 9.0
2015-Jan-25 19:30N 37°32' E 023°37'  
2015-Jan-23 07:32N 36°55' E 023°16'33 7.6
2015-Jan-23 03:14N 37°24' E 023°35'5 6.4
2015-Jan-23 02:24N 37°29' E 023°37'6 7.3
2015-Jan-23 01:33N 37°35' E 023°36'6 6.2
2015-Jan-23 00:33N 37°42' E 023°36'7 7.0
2015-Jan-22 23:33N 37°48' E 023°35'8 8.2
2015-Jan-22 22:33N 37°52' E 023°25'12 6.0
2015-Jan-22 20:33N 38°01' E 023°35'1 0.7
2015-Jan-22 19:33N 38°02' E 023°36'0 0.0
2015-Jan-22 18:33N 38°02' E 023°36'0 0.0
2015-Jan-22 17:33N 38°02' E 023°36'0 0.0
2015-Jan-22 16:33N 38°02' E 023°36'0 0.0
2015-Jan-22 15:33N 38°02' E 023°36'0 0.0
2015-Jan-22 14:33N 38°02' E 023°36'0 0.0
2015-Jan-22 13:33N 38°02' E 023°36'0 0.0
2015-Jan-22 12:33N 38°02' E 023°36'0 0.0
2015-Jan-22 11:33N 38°02' E 023°36'3 2.6
2015-Jan-22 10:33N 38°01' E 023°32'8 8.0
2015-Jan-22 09:33N 37°54' E 023°38'10 9.9
2015-Jan-22 08:33N 37°45' E 023°43'10 9.3
2015-Jan-22 07:31N 37°39' E 023°53'185 8.6
2015-Jan-21 10:08N 40°30' E 025°24'5 9.5
2015-Jan-21 09:33N 40°34' E 025°29'10 9.7
2015-Jan-21 08:33N 40°40' E 025°39'10 9.9
2015-Jan-21 07:33N 40°46' E 025°49'6 5.9
2015-Jan-21 06:33N 40°50' E 025°55'0 0.1
2015-Jan-21 05:31N 40°50' E 025°55'0 0.0
2015-Jan-21 04:31N 40°50' E 025°55'0 0.0
2015-Jan-21 03:31N 40°50' E 025°55'0 0.0
2015-Jan-21 02:31N 40°50' E 025°55'0 0.0
2015-Jan-21 01:31N 40°50' E 025°55'0 0.0
2015-Jan-21 00:31N 40°50' E 025°55'0 0.0
2015-Jan-20 23:28N 40°50' E 025°55'0 0.0
2015-Jan-20 22:31N 40°50' E 025°55'0 0.0
2015-Jan-20 21:31N 40°50' E 025°55'0 0.0
2015-Jan-20 20:31N 40°50' E 025°55'0 0.0
2015-Jan-20 19:31N 40°50' E 025°55'0 0.0
2015-Jan-20 18:31N 40°50' E 025°55'0 0.0
2015-Jan-20 17:31N 40°50' E 025°55'0 0.0
2015-Jan-20 16:31N 40°50' E 025°55'0 0.0
2015-Jan-20 15:31N 40°50' E 025°55'0 0.0
2015-Jan-20 14:31N 40°50' E 025°55'0 0.0
2015-Jan-20 13:31N 40°50' E 025°55'0 0.0
2015-Jan-20 12:31N 40°50' E 025°55'0 0.0
2015-Jan-20 11:31N 40°50' E 025°55'0 0.0
2015-Jan-20 10:31N 40°50' E 025°55'0 0.0
2015-Jan-20 09:31N 40°50' E 025°55'0 0.0
2015-Jan-20 08:31N 40°50' E 025°55'0 0.0
2015-Jan-20 07:28N 40°50' E 025°55'0 0.0
2015-Jan-20 06:31N 40°50' E 025°55'2 2.4
2015-Jan-20 05:32N 40°49' E 025°53'0 0.1
2015-Jan-20 04:30N 40°49' E 025°53'0 0.0
2015-Jan-20 03:26N 40°49' E 025°53'0 0.0
2015-Jan-20 02:25N 40°49' E 025°53'0 0.0
2015-Jan-20 01:26N 40°49' E 025°53'0 0.0
2015-Jan-20 00:32N 40°49' E 025°53'0 0.0
2015-Jan-19 23:32N 40°49' E 025°53'0 0.0
2015-Jan-19 22:32N 40°49' E 025°53'0 0.0
2015-Jan-19 21:32N 40°49' E 025°53'0 0.0
2015-Jan-19 20:32N 40°49' E 025°53'0 0.0
2015-Jan-19 19:32N 40°49' E 025°53'0 0.0
2015-Jan-19 18:32N 40°49' E 025°53'0 0.0
2015-Jan-19 17:32N 40°49' E 025°53'0 0.1
2015-Jan-19 16:33N 40°49' E 025°52'8 7.8
2015-Jan-19 15:34N 40°43' E 025°46'10 9.4
2015-Jan-19 14:29N 40°36' E 025°35'22 9.7
2015-Jan-19 12:14N 40°20' E 025°17'710.3
2015-Jan-19 11:32N 40°14' E 025°12'1110.1
2015-Jan-19 10:26N 40°04' E 025°04'8 9.5
2015-Jan-19 09:33N 39°57' E 024°60'149 8.7
2015-Jan-18 16:32N 37°38' E 023°51'8 8.5
2015-Jan-18 15:33N 37°42' E 023°42'9 9.2
2015-Jan-18 14:33N 37°50' E 023°37'9 8.2
2015-Jan-18 13:31N 37°58' E 023°33'3 2.8
2015-Jan-18 12:18N 38°01' E 023°32'0 0.0
2015-Jan-18 10:30N 38°01' E 023°32'0 0.0
2015-Jan-18 09:24N 38°01' E 023°32'0 0.0
2015-Jan-18 08:09N 38°01' E 023°32'0 0.1
2015-Jan-18 06:17N 38°01' E 023°32'3 1.7
2015-Jan-18 04:32N 38°02' E 023°36'0 0.0
2015-Jan-18 03:32N 38°02' E 023°36'0 0.0
2015-Jan-18 02:26N 38°02' E 023°36'0 0.0
2015-Jan-18 01:32N 38°02' E 023°36'0 0.0
2015-Jan-18 00:32N 38°02' E 023°36'0 0.0
2015-Jan-17 23:32N 38°02' E 023°36'0 0.0
2015-Jan-17 22:32N 38°02' E 023°36'0 0.0
2015-Jan-17 21:29N 38°02' E 023°36'0 0.0
2015-Jan-17 20:29N 38°02' E 023°36'0 0.0
2015-Jan-17 19:32N 38°02' E 023°36'0 0.0
2015-Jan-17 18:32N 38°02' E 023°36'0 0.0
2015-Jan-17 17:32N 38°02' E 023°36'1 0.6
2015-Jan-17 16:29N 38°02' E 023°35'0 0.2
2015-Jan-17 15:25N 38°01' E 023°35'0 0.1
2015-Jan-17 14:31N 38°01' E 023°35'0 0.0
2015-Jan-17 13:31N 38°01' E 023°35'0 0.0
2015-Jan-17 12:31N 38°01' E 023°35'0 0.0
2015-Jan-17 11:31N 38°01' E 023°35'0 0.0
2015-Jan-17 10:28N 38°01' E 023°35'  
Track history (hours):
 
Tides and Currents Weather Stations Pressure Air Temp Water Temp Dewpoint Dewpoint Depression Visibility Wind Speed Wind Dir Waves Ship Positions

Eviapetrol I

Last reported at 2015-Jan-27 09:31 UTC. Time now 2015-Jan-29 12:22 UTC.
Position N 37°37' E 023°56'.

Length 75 m; draft 4.5 m.

Type: Tanker. MMSI: 240285000.

Date/timePositionNaut miles runAvg speedWind from/ knotsBaromVisibWave heightAir tempDewpointWater temp
2015-Jan-27 09:31N 37°37' E 023°56'9 9.2
2015-Jan-27 08:33N 37°39' E 023°45'9 9.3
2015-Jan-27 07:34N 37°47' E 023°38'9 8.9
2015-Jan-27 06:33N 37°50' E 023°28'12 0.4
2015-Jan-25 22:13N 37°47' E 023°14'8 9.5
2015-Jan-25 21:20N 37°40' E 023°19'17 9.0
2015-Jan-25 19:30N 37°32' E 023°37'  
2015-Jan-23 07:32N 36°55' E 023°16'33 7.6
2015-Jan-23 03:14N 37°24' E 023°35'5 6.4
2015-Jan-23 02:24N 37°29' E 023°37'6 7.3
2015-Jan-23 01:33N 37°35' E 023°36'6 6.2
2015-Jan-23 00:33N 37°42' E 023°36'7 7.0
2015-Jan-22 23:33N 37°48' E 023°35'8 8.2
2015-Jan-22 22:33N 37°52' E 023°25'12 6.0
2015-Jan-22 20:33N 38°01' E 023°35'1 0.7
2015-Jan-22 19:33N 38°02' E 023°36'0 0.0
2015-Jan-22 18:33N 38°02' E 023°36'0 0.0
2015-Jan-22 17:33N 38°02' E 023°36'0 0.0
2015-Jan-22 16:33N 38°02' E 023°36'0 0.0
2015-Jan-22 15:33N 38°02' E 023°36'0 0.0
2015-Jan-22 14:33N 38°02' E 023°36'0 0.0
2015-Jan-22 13:33N 38°02' E 023°36'0 0.0
2015-Jan-22 12:33N 38°02' E 023°36'0 0.0
2015-Jan-22 11:33N 38°02' E 023°36'3 2.6
2015-Jan-22 10:33N 38°01' E 023°32'8 8.0
2015-Jan-22 09:33N 37°54' E 023°38'10 9.9
2015-Jan-22 08:33N 37°45' E 023°43'10 9.3
2015-Jan-22 07:31N 37°39' E 023°53'185 8.6
2015-Jan-21 10:08N 40°30' E 025°24'5 9.5
2015-Jan-21 09:33N 40°34' E 025°29'10 9.7
2015-Jan-21 08:33N 40°40' E 025°39'10 9.9
2015-Jan-21 07:33N 40°46' E 025°49'6 5.9
2015-Jan-21 06:33N 40°50' E 025°55'0 0.1
2015-Jan-21 05:31N 40°50' E 025°55'0 0.0
2015-Jan-21 04:31N 40°50' E 025°55'0 0.0
2015-Jan-21 03:31N 40°50' E 025°55'0 0.0
2015-Jan-21 02:31N 40°50' E 025°55'0 0.0
2015-Jan-21 01:31N 40°50' E 025°55'0 0.0
2015-Jan-21 00:31N 40°50' E 025°55'0 0.0
2015-Jan-20 23:28N 40°50' E 025°55'0 0.0
2015-Jan-20 22:31N 40°50' E 025°55'0 0.0
2015-Jan-20 21:31N 40°50' E 025°55'0 0.0
2015-Jan-20 20:31N 40°50' E 025°55'0 0.0
2015-Jan-20 19:31N 40°50' E 025°55'0 0.0
2015-Jan-20 18:31N 40°50' E 025°55'0 0.0
2015-Jan-20 17:31N 40°50' E 025°55'0 0.0
2015-Jan-20 16:31N 40°50' E 025°55'0 0.0
2015-Jan-20 15:31N 40°50' E 025°55'0 0.0
2015-Jan-20 14:31N 40°50' E 025°55'0 0.0
2015-Jan-20 13:31N 40°50' E 025°55'0 0.0
2015-Jan-20 12:31N 40°50' E 025°55'0 0.0
2015-Jan-20 11:31N 40°50' E 025°55'0 0.0
2015-Jan-20 10:31N 40°50' E 025°55'0 0.0
2015-Jan-20 09:31N 40°50' E 025°55'0 0.0
2015-Jan-20 08:31N 40°50' E 025°55'0 0.0
2015-Jan-20 07:28N 40°50' E 025°55'0 0.0
2015-Jan-20 06:31N 40°50' E 025°55'2 2.4
2015-Jan-20 05:32N 40°49' E 025°53'0 0.1
2015-Jan-20 04:30N 40°49' E 025°53'0 0.0
2015-Jan-20 03:26N 40°49' E 025°53'0 0.0
2015-Jan-20 02:25N 40°49' E 025°53'0 0.0
2015-Jan-20 01:26N 40°49' E 025°53'0 0.0
2015-Jan-20 00:32N 40°49' E 025°53'0 0.0
2015-Jan-19 23:32N 40°49' E 025°53'0 0.0
2015-Jan-19 22:32N 40°49' E 025°53'0 0.0
2015-Jan-19 21:32N 40°49' E 025°53'0 0.0
2015-Jan-19 20:32N 40°49' E 025°53'0 0.0
2015-Jan-19 19:32N 40°49' E 025°53'0 0.0
2015-Jan-19 18:32N 40°49' E 025°53'0 0.0
2015-Jan-19 17:32N 40°49' E 025°53'0 0.1
2015-Jan-19 16:33N 40°49' E 025°52'8 7.8
2015-Jan-19 15:34N 40°43' E 025°46'10 9.4
2015-Jan-19 14:29N 40°36' E 025°35'22 9.7
2015-Jan-19 12:14N 40°20' E 025°17'710.3
2015-Jan-19 11:32N 40°14' E 025°12'1110.1
2015-Jan-19 10:26N 40°04' E 025°04'8 9.5
2015-Jan-19 09:33N 39°57' E 024°60'149 8.7
2015-Jan-18 16:32N 37°38' E 023°51'8 8.5
2015-Jan-18 15:33N 37°42' E 023°42'9 9.2
2015-Jan-18 14:33N 37°50' E 023°37'9 8.2
2015-Jan-18 13:31N 37°58' E 023°33'3 2.8
2015-Jan-18 12:18N 38°01' E 023°32'0 0.0
2015-Jan-18 10:30N 38°01' E 023°32'0 0.0
2015-Jan-18 09:24N 38°01' E 023°32'0 0.0
2015-Jan-18 08:09N 38°01' E 023°32'0 0.1
2015-Jan-18 06:17N 38°01' E 023°32'3 1.7
2015-Jan-18 04:32N 38°02' E 023°36'0 0.0
2015-Jan-18 03:32N 38°02' E 023°36'0 0.0
2015-Jan-18 02:26N 38°02' E 023°36'0 0.0
2015-Jan-18 01:32N 38°02' E 023°36'0 0.0
2015-Jan-18 00:32N 38°02' E 023°36'0 0.0
2015-Jan-17 23:32N 38°02' E 023°36'0 0.0
2015-Jan-17 22:32N 38°02' E 023°36'0 0.0
2015-Jan-17 21:29N 38°02' E 023°36'0 0.0
2015-Jan-17 20:29N 38°02' E 023°36'0 0.0
2015-Jan-17 19:32N 38°02' E 023°36'0 0.0
2015-Jan-17 18:32N 38°02' E 023°36'0 0.0
2015-Jan-17 17:32N 38°02' E 023°36'1 0.6
2015-Jan-17 16:29N 38°02' E 023°35'0 0.2
2015-Jan-17 15:25N 38°01' E 023°35'0 0.1
2015-Jan-17 14:31N 38°01' E 023°35'0 0.0
2015-Jan-17 13:31N 38°01' E 023°35'0 0.0
2015-Jan-17 12:31N 38°01' E 023°35'0 0.0
2015-Jan-17 11:31N 38°01' E 023°35'0 0.0
2015-Jan-17 10:28N 38°01' E 023°35'  

Dump ship's entire track history